Terminal Aerodrome Forecast
Issued by NWS

Home | Current Version | Previous Version | Text Only | Print | Product List | Glossary On
Versions: 1 2 3 4 5 6 7 8 9 10 11 12 13 14 15 16 17 18
101
FTUS42 KFFC 051720
TAFRYY
TAF
KRYY 051720Z 0518/0618 08005KT 5SM -RA BR OVC006
     FM052300 09009KT 2SM -RADZ BR OVC004
     FM060800 08012G17KT 3SM RA BR OVC004 PROB30 0608/0614 -TSRA
      BKN004CB
     FM061400 15008KT 3SM -RA BKN005=

USA.gov is the U.S. government's official web portal to all federal, state and local government web resources and services.